createdAt,value
2023-03-19T00:00:27.072Z,0
2023-03-19T00:01:27.072Z,0
2023-03-19T00:02:28.132Z,0
2023-03-19T00:03:27.217Z,0
2023-03-19T00:04:26.739Z,0
2023-03-19T00:05:26.997Z,0
2023-03-19T00:06:26.991Z,0
2023-03-19T00:07:26.957Z,0
2023-03-19T00:08:26.921Z,0
2023-03-19T00:09:26.517Z,0
2023-03-19T00:10:26.930Z,0
2023-03-19T00:11:26.987Z,0
2023-03-19T00:12:26.907Z,0
2023-03-19T00:13:27.178Z,0
2023-03-19T00:14:27.163Z,0
2023-03-19T00:15:27.125Z,0
2023-03-19T00:16:26.914Z,0
2023-03-19T00:17:27.079Z,0
2023-03-19T00:18:26.548Z,0
2023-03-19T00:19:27.054Z,0
2023-03-19T00:20:27.124Z,0
2023-03-19T00:21:31.162Z,0
2023-03-19T00:22:26.516Z,0
2023-03-19T00:23:26.217Z,0
2023-03-19T00:24:26.754Z,0
2023-03-19T00:25:26.689Z,0
2023-03-19T00:26:26.705Z,0
2023-03-19T00:27:26.748Z,0
2023-03-19T00:28:26.918Z,0
2023-03-19T00:29:26.942Z,0
2023-03-19T00:30:26.998Z,0
2023-03-19T00:31:26.612Z,0
2023-03-19T00:32:26.360Z,0
2023-03-19T00:33:26.244Z,0
2023-03-19T00:34:26.826Z,0
2023-03-19T00:35:26.838Z,0
2023-03-19T00:36:26.575Z,0
2023-03-19T00:37:26.285Z,0
2023-03-19T00:38:26.264Z,0
2023-03-19T00:39:26.525Z,0
2023-03-19T00:40:26.801Z,0
2023-03-19T00:41:26.735Z,0
2023-03-19T00:42:26.708Z,0
2023-03-19T00:43:26.784Z,0
2023-03-19T00:44:26.715Z,0
2023-03-19T00:45:26.748Z,0
2023-03-19T00:46:26.827Z,0
2023-03-19T00:47:26.666Z,0
2023-03-19T00:48:26.747Z,0
2023-03-19T00:49:26.404Z,0
2023-03-19T00:50:26.117Z,0
2023-03-19T00:51:26.613Z,0
2023-03-19T00:52:26.365Z,0
2023-03-19T00:53:26.583Z,0
2023-03-19T00:54:26.065Z,0
2023-03-19T00:55:26.316Z,0
2023-03-19T00:56:26.586Z,0
2023-03-19T00:57:26.868Z,0
2023-03-19T00:58:27.238Z,0
2023-03-19T00:59:27.552Z,0
2023-03-19T01:00:27.230Z,0
2023-03-19T01:01:27.448Z,0
2023-03-19T01:02:26.956Z,0
2023-03-19T01:03:27.170Z,0
2023-03-19T01:04:27.195Z,0
2023-03-19T01:05:26.700Z,0
2023-03-19T01:06:27.110Z,0
2023-03-19T01:07:27.133Z,0
2023-03-19T01:08:27.088Z,0
2023-03-19T01:09:26.558Z,0
2023-03-19T01:10:27.321Z,0
2023-03-19T01:11:27.294Z,0
2023-03-19T01:12:27.111Z,0
2023-03-19T01:13:27.194Z,0
2023-03-19T01:14:27.031Z,0
2023-03-19T01:15:27.096Z,0
2023-03-19T01:16:26.991Z,0
2023-03-19T01:17:27.270Z,0
2023-03-19T01:18:27.240Z,0
2023-03-19T01:19:27.279Z,0
2023-03-19T01:20:26.649Z,0
2023-03-19T01:21:26.651Z,0
2023-03-19T01:22:26.362Z,0
2023-03-19T01:23:26.617Z,0
2023-03-19T01:24:26.606Z,0
2023-03-19T01:25:26.845Z,0
2023-03-19T01:26:26.570Z,0
2023-03-19T01:27:27.073Z,0
2023-03-19T01:28:26.538Z,0
2023-03-19T01:29:26.788Z,0
2023-03-19T01:30:26.262Z,0
2023-03-19T01:31:27.419Z,0
2023-03-19T01:32:26.469Z,0
2023-03-19T01:33:30.353Z,0
2023-03-19T01:34:26.726Z,0
2023-03-19T01:35:26.449Z,0
2023-03-19T01:36:26.962Z,0
2023-03-19T01:37:26.900Z,0
2023-03-19T01:38:26.661Z,0
2023-03-19T01:39:26.863Z,0
2023-03-19T01:40:26.363Z,0
2023-03-19T01:41:26.660Z,0
2023-03-19T01:42:26.663Z,0
2023-03-19T01:43:26.829Z,0
2023-03-19T01:44:26.287Z,0
2023-03-19T01:45:26.527Z,0
2023-03-19T01:46:26.237Z,0
2023-03-19T01:47:26.318Z,0
2023-03-19T01:48:26.289Z,0
2023-03-19T01:49:26.774Z,0
2023-03-19T01:50:26.261Z,0
2023-03-19T01:51:26.448Z,0
2023-03-19T01:52:26.684Z,0
2023-03-19T01:53:26.400Z,0
2023-03-19T01:54:26.701Z,0
2023-03-19T01:55:26.646Z,0
2023-03-19T01:56:26.159Z,0
2023-03-19T01:57:26.358Z,0
2023-03-19T01:58:28.440Z,0
2023-03-19T01:59:26.581Z,0
2023-03-19T02:00:26.061Z,0
2023-03-19T02:01:26.467Z,0
2023-03-19T02:02:26.311Z,0
2023-03-19T02:03:26.412Z,0
2023-03-19T02:04:26.877Z,0
2023-03-19T02:05:26.295Z,0
2023-03-19T02:06:26.551Z,0
2023-03-19T02:07:25.951Z,0
2023-03-19T02:08:26.252Z,0
2023-03-19T02:09:26.429Z,0
2023-03-19T02:10:25.887Z,0
2023-03-19T02:11:26.171Z,0
2023-03-19T02:12:25.874Z,0
2023-03-19T02:13:26.645Z,0
2023-03-19T02:14:25.854Z,0
2023-03-19T02:15:26.429Z,0
2023-03-19T02:16:26.776Z,0
2023-03-19T02:17:25.273Z,0
2023-03-19T02:18:25.553Z,0
2023-03-19T02:19:26.457Z,0
2023-03-19T02:20:26.288Z,0
2023-03-19T02:21:26.304Z,0
2023-03-19T02:22:25.755Z,0
2023-03-19T02:23:26.327Z,0
2023-03-19T02:24:25.941Z,0
2023-03-19T02:25:25.693Z,0
2023-03-19T02:26:25.920Z,0
2023-03-19T02:27:25.908Z,0
2023-03-19T02:28:26.162Z,0
2023-03-19T02:29:26.182Z,0
2023-03-19T02:30:57.706Z,0
2023-03-19T02:31:26.278Z,0
2023-03-19T02:32:25.561Z,0
2023-03-19T02:33:25.819Z,0
2023-03-19T02:34:25.820Z,0
2023-03-19T02:35:26.116Z,0
2023-03-19T02:36:25.774Z,0
2023-03-19T02:37:26.093Z,0
2023-03-19T02:38:25.619Z,0
2023-03-19T02:39:26.116Z,0
2023-03-19T02:40:25.748Z,0
2023-03-19T02:41:25.716Z,0
2023-03-19T02:42:25.961Z,0
2023-03-19T02:43:26.011Z,0
2023-03-19T02:44:25.686Z,0
2023-03-19T02:45:25.907Z,0
2023-03-19T02:46:25.518Z,0
2023-03-19T02:47:25.650Z,0
2023-03-19T02:48:25.107Z,0
2023-03-19T02:49:25.589Z,0
2023-03-19T02:50:25.378Z,0
2023-03-19T02:51:25.603Z,0
2023-03-19T02:52:25.796Z,0
2023-03-19T02:53:25.831Z,0
2023-03-19T02:54:25.533Z,0
2023-03-19T02:55:25.578Z,0
2023-03-19T02:56:25.228Z,0
2023-03-19T02:57:25.747Z,0
2023-03-19T02:58:25.439Z,0
2023-03-19T02:59:25.422Z,0
2023-03-19T03:00:25.176Z,0
2023-03-19T03:01:25.560Z,0
2023-03-19T03:02:25.984Z,0
2023-03-19T03:03:25.163Z,0
2023-03-19T03:04:25.141Z,0
2023-03-19T03:05:25.350Z,0
2023-03-19T03:06:25.392Z,0
2023-03-19T03:07:25.653Z,0
2023-03-19T03:08:25.086Z,0
2023-03-19T03:09:25.719Z,0
2023-03-19T03:10:25.236Z,0
2023-03-19T03:11:25.010Z,0
2023-03-19T03:12:25.022Z,0
2023-03-19T03:13:25.535Z,0
2023-03-19T03:14:25.217Z,0
2023-03-19T03:15:25.215Z,0
2023-03-19T03:16:25.555Z,0
2023-03-19T03:17:25.169Z,0
2023-03-19T03:18:25.025Z,0
2023-03-19T03:19:25.620Z,0
2023-03-19T03:20:24.634Z,0
2023-03-19T03:21:25.136Z,0
2023-03-19T03:22:25.124Z,0
2023-03-19T03:23:25.163Z,0
2023-03-19T03:24:24.852Z,0
2023-03-19T03:25:25.139Z,0
2023-03-19T03:26:25.367Z,0
2023-03-19T03:27:24.760Z,0
2023-03-19T03:28:25.025Z,0
2023-03-19T03:29:25.014Z,0
2023-03-19T03:30:24.978Z,0
2023-03-19T03:31:25.497Z,0
2023-03-19T03:32:24.436Z,0
2023-03-19T03:33:25.207Z,0
2023-03-19T03:34:24.995Z,0
2023-03-19T03:35:25.445Z,0
2023-03-19T03:36:25.160Z,0
2023-03-19T03:37:24.897Z,0
2023-03-19T03:38:24.628Z,0
2023-03-19T03:39:24.922Z,0
2023-03-19T03:40:24.606Z,0
2023-03-19T03:41:25.166Z,0
2023-03-19T03:42:24.871Z,0
2023-03-19T03:43:24.859Z,0
2023-03-19T03:44:24.531Z,0
2023-03-19T03:45:25.013Z,0
2023-03-19T03:46:25.040Z,0
2023-03-19T03:47:25.022Z,0
2023-03-19T03:48:24.477Z,0
2023-03-19T03:49:24.874Z,0
2023-03-19T03:50:24.960Z,0
2023-03-19T03:51:24.485Z,0
2023-03-19T03:52:24.705Z,0
2023-03-19T03:53:24.920Z,0
2023-03-19T03:54:24.398Z,0
2023-03-19T03:55:24.170Z,0
2023-03-19T03:56:24.125Z,0
2023-03-19T03:57:25.176Z,0
2023-03-19T03:58:24.113Z,0
2023-03-19T03:59:24.068Z,0
2023-03-19T04:00:24.575Z,0
2023-03-19T04:01:24.355Z,0
2023-03-19T04:02:24.580Z,0
2023-03-19T04:03:24.736Z,0
2023-03-19T04:04:24.534Z,0
2023-03-19T04:05:24.760Z,0
2023-03-19T04:06:24.760Z,0
2023-03-19T04:07:24.468Z,0
2023-03-19T04:08:24.710Z,0
2023-03-19T04:09:24.290Z,0
2023-03-19T04:10:24.157Z,0
2023-03-19T04:11:24.732Z,0
2023-03-19T04:12:24.404Z,0
2023-03-19T04:13:24.193Z,0
2023-03-19T04:14:24.653Z,0
2023-03-19T04:15:24.617Z,0
2023-03-19T04:16:24.544Z,0
2023-03-19T04:17:24.332Z,0
2023-03-19T04:18:24.555Z,0
2023-03-19T04:19:23.802Z,0
2023-03-19T04:20:24.279Z,0
2023-03-19T04:21:24.271Z,0
2023-03-19T04:22:23.969Z,0
2023-03-19T04:23:24.507Z,0
2023-03-19T04:24:23.976Z,0
2023-03-19T04:25:24.464Z,0
2023-03-19T04:26:24.441Z,0
2023-03-19T04:27:24.478Z,0
2023-03-19T04:28:23.996Z,0
2023-03-19T04:46:13.924Z,0
2023-03-19T04:47:13.545Z,0
2023-03-19T04:48:13.322Z,0
2023-03-19T04:49:13.029Z,0
2023-03-19T04:50:13.531Z,0
2023-03-19T04:51:13.031Z,0
2023-03-19T04:52:13.214Z,0
2023-03-19T04:53:12.929Z,0
2023-03-19T04:54:13.214Z,0
2023-03-19T04:55:12.662Z,0
2023-03-19T04:56:13.380Z,0
2023-03-19T04:57:13.587Z,0
2023-03-19T04:58:13.287Z,0
2023-03-19T04:59:13.525Z,0
2023-03-19T05:00:12.744Z,0
2023-03-19T05:01:13.448Z,0
2023-03-19T05:02:13.720Z,0
2023-03-19T05:03:13.192Z,0
2023-03-19T05:04:13.477Z,0
2023-03-19T05:05:13.450Z,0
2023-03-19T05:06:12.896Z,0
2023-03-19T05:07:13.184Z,0
2023-03-19T05:08:12.891Z,0
2023-03-19T05:09:12.621Z,0
2023-03-19T05:10:12.862Z,0
2023-03-19T05:11:13.089Z,0
2023-03-19T05:12:13.095Z,0
2023-03-19T05:13:12.852Z,0
2023-03-19T05:14:12.807Z,0
2023-03-19T05:15:13.054Z,0
2023-03-19T05:16:12.976Z,0
2023-03-19T05:17:13.003Z,0
2023-03-19T05:18:13.354Z,0
2023-03-19T05:19:12.782Z,0
2023-03-19T05:20:13.248Z,5
2023-03-19T05:21:12.685Z,5
2023-03-19T05:22:13.162Z,5
2023-03-19T05:23:13.186Z,5
2023-03-19T05:24:13.156Z,5
2023-03-19T05:25:12.351Z,5
2023-03-19T05:26:13.131Z,5
2023-03-19T05:27:13.121Z,5
2023-03-19T05:28:12.721Z,5
2023-03-19T05:29:13.098Z,10
2023-03-19T05:30:13.089Z,10
2023-03-19T05:31:13.058Z,10
2023-03-19T05:32:12.323Z,10
2023-03-19T05:33:12.900Z,10
2023-03-19T05:34:13.136Z,10
2023-03-19T05:35:12.505Z,10
2023-03-19T05:36:13.272Z,10
2023-03-19T05:37:12.698Z,10
2023-03-19T05:38:12.681Z,10
2023-03-19T05:39:12.919Z,15
2023-03-19T05:40:12.649Z,15
2023-03-19T05:41:12.657Z,15
2023-03-19T05:42:12.655Z,15
2023-03-19T05:43:12.774Z,20
2023-03-19T05:44:12.602Z,20
2023-03-19T05:45:12.601Z,20
2023-03-19T05:46:13.075Z,20
2023-03-19T05:47:12.561Z,20
2023-03-19T05:48:12.558Z,25
2023-03-19T05:49:12.264Z,25
2023-03-19T05:50:12.898Z,25
2023-03-19T05:51:12.325Z,30
2023-03-19T05:52:12.507Z,30
2023-03-19T05:53:12.254Z,30
2023-03-19T05:54:12.505Z,35
2023-03-19T05:55:12.716Z,35
2023-03-19T05:56:12.670Z,35
2023-03-19T05:57:13.243Z,35
2023-03-19T05:58:12.225Z,40
2023-03-19T05:59:12.152Z,40
2023-03-19T06:00:12.618Z,40
2023-03-19T06:01:12.478Z,45
2023-03-19T06:02:12.337Z,45
2023-03-19T06:03:12.509Z,50
2023-03-19T06:04:15.418Z,50
2023-03-19T06:05:12.303Z,50
2023-03-19T06:06:12.654Z,50
2023-03-19T06:07:12.521Z,45
2023-03-19T06:08:12.546Z,45
2023-03-19T06:09:11.996Z,45
2023-03-19T06:10:12.010Z,45
2023-03-19T06:11:11.970Z,45
2023-03-19T06:12:11.918Z,45
2023-03-19T06:13:11.916Z,50
2023-03-19T06:14:12.294Z,55
2023-03-19T06:15:12.394Z,55
2023-03-19T06:16:12.358Z,55
2023-03-19T06:17:11.865Z,55
2023-03-19T06:18:11.586Z,60
2023-03-19T06:19:12.196Z,60
2023-03-19T06:20:12.103Z,60
2023-03-19T06:21:11.807Z,60
2023-03-19T06:22:12.425Z,60
2023-03-19T06:23:13.379Z,60
2023-03-19T06:24:12.056Z,60
2023-03-19T06:25:11.788Z,65
2023-03-19T06:26:12.058Z,65
2023-03-19T06:27:11.992Z,65
2023-03-19T06:28:11.724Z,65
2023-03-19T06:29:11.972Z,65
2023-03-19T06:30:12.238Z,65
2023-03-19T06:31:12.423Z,70
2023-03-19T06:32:11.911Z,70
2023-03-19T06:33:12.416Z,75
2023-03-19T06:34:12.199Z,80
2023-03-19T06:35:12.144Z,85
2023-03-19T06:36:12.010Z,85
2023-03-19T06:37:12.122Z,85
2023-03-19T06:38:12.318Z,85
2023-03-19T06:39:11.561Z,85
2023-03-19T06:40:11.945Z,80
2023-03-19T06:41:12.161Z,80
2023-03-19T06:42:11.984Z,80
2023-03-19T06:43:11.878Z,80
2023-03-19T06:44:11.412Z,80
2023-03-19T06:45:12.103Z,90
2023-03-19T06:46:15.763Z,100
2023-03-19T06:47:11.818Z,105
2023-03-19T06:48:11.817Z,105
2023-03-19T06:49:11.811Z,105
2023-03-19T06:50:12.060Z,105
2023-03-19T06:51:10.995Z,100
2023-03-19T06:52:11.799Z,100
2023-03-19T06:53:11.776Z,100
2023-03-19T06:54:12.254Z,100
2023-03-19T06:55:11.468Z,105
2023-03-19T06:56:11.722Z,105
2023-03-19T06:57:11.931Z,105
2023-03-19T06:58:11.419Z,105
2023-03-19T06:59:11.678Z,105
2023-03-19T07:00:11.945Z,105
2023-03-19T07:01:12.029Z,105
2023-03-19T07:02:14.263Z,105
2023-03-19T07:03:11.415Z,105
2023-03-19T07:04:11.807Z,105
2023-03-19T07:05:11.330Z,105
2023-03-19T07:06:11.311Z,105
2023-03-19T07:07:11.559Z,105
2023-03-19T07:08:11.556Z,105
2023-03-19T07:09:11.315Z,105
2023-03-19T07:10:12.057Z,105
2023-03-19T07:11:11.750Z,105
2023-03-19T07:12:11.764Z,105
2023-03-19T07:13:11.484Z,105
2023-03-19T07:14:11.212Z,110
2023-03-19T07:15:11.215Z,115
2023-03-19T07:16:11.906Z,120
2023-03-19T07:17:14.383Z,120
2023-03-19T07:18:11.480Z,120
2023-03-19T07:19:11.691Z,125
2023-03-19T07:20:11.155Z,125
2023-03-19T07:21:11.382Z,130
2023-03-19T07:22:10.879Z,135
2023-03-19T07:23:12.005Z,135
2023-03-19T07:24:11.735Z,140
2023-03-19T07:25:11.768Z,140
2023-03-19T07:26:12.076Z,145
2023-03-19T07:27:11.469Z,150
2023-03-19T07:28:11.664Z,155
2023-03-19T07:29:11.677Z,160
2023-03-19T07:30:11.924Z,165
2023-03-19T07:31:11.854Z,165
2023-03-19T07:32:12.185Z,170
2023-03-19T07:33:12.303Z,175
2023-03-19T07:34:11.617Z,175
2023-03-19T07:35:11.625Z,175
2023-03-19T07:36:11.676Z,175
2023-03-19T07:37:11.604Z,180
2023-03-19T07:38:11.875Z,180
2023-03-19T07:39:11.558Z,180
2023-03-19T07:40:11.571Z,185
2023-03-19T07:41:12.548Z,185
2023-03-19T07:42:11.925Z,190
2023-03-19T07:43:10.974Z,190
2023-03-19T07:44:11.514Z,195
2023-03-19T07:45:12.306Z,185
2023-03-19T07:46:12.902Z,185
2023-03-19T07:47:32.127Z,180
2023-03-19T07:48:12.224Z,180
2023-03-19T07:49:11.988Z,185
2023-03-19T07:50:11.702Z,185
2023-03-19T07:51:12.473Z,185
2023-03-19T07:52:12.420Z,190
2023-03-19T07:53:12.472Z,195
2023-03-19T07:54:12.634Z,195
2023-03-19T07:55:12.160Z,200
2023-03-19T07:56:12.125Z,200
2023-03-19T07:57:13.111Z,200
2023-03-19T07:58:12.840Z,205
2023-03-19T07:59:11.842Z,210
2023-03-19T08:00:11.612Z,210
2023-03-19T08:01:12.353Z,215
2023-03-19T08:02:12.369Z,215
2023-03-19T08:03:12.323Z,215
2023-03-19T08:04:12.571Z,220
2023-03-19T08:05:12.016Z,220
2023-03-19T08:06:12.070Z,225
2023-03-19T08:07:11.769Z,225
2023-03-19T08:08:12.023Z,230
2023-03-19T08:09:12.001Z,225
2023-03-19T08:10:12.298Z,225
2023-03-19T08:11:12.016Z,220
2023-03-19T08:12:11.504Z,215
2023-03-19T08:13:12.254Z,215
2023-03-19T08:14:12.361Z,210
2023-03-19T08:15:11.725Z,210
2023-03-19T08:16:12.192Z,210
2023-03-19T08:17:11.982Z,210
2023-03-19T08:18:12.080Z,210
2023-03-19T08:19:12.214Z,210
2023-03-19T08:20:11.931Z,210
2023-03-19T08:21:11.920Z,210
2023-03-19T08:22:11.619Z,220
2023-03-19T08:23:11.878Z,225
2023-03-19T08:24:14.068Z,230
2023-03-19T08:25:12.123Z,230
2023-03-19T08:26:12.099Z,235
2023-03-19T08:27:11.604Z,240
2023-03-19T08:28:11.811Z,240
2023-03-19T08:29:12.083Z,240
2023-03-19T08:30:12.259Z,240
2023-03-19T08:31:12.415Z,240
2023-03-19T08:32:11.818Z,240
2023-03-19T08:33:12.246Z,240
2023-03-19T08:34:11.768Z,240
2023-03-19T08:35:11.778Z,235
2023-03-19T08:36:12.377Z,230
2023-03-19T08:37:11.469Z,225
2023-03-19T08:38:12.002Z,220
2023-03-19T08:39:11.710Z,215
2023-03-19T08:40:11.748Z,220
2023-03-19T08:41:11.716Z,220
2023-03-19T08:42:12.062Z,215
2023-03-19T08:43:12.071Z,215
2023-03-19T08:44:11.665Z,205
2023-03-19T08:45:11.660Z,200
2023-03-19T08:46:12.408Z,200
2023-03-19T08:47:11.854Z,200
2023-03-19T08:48:11.691Z,205
2023-03-19T08:49:11.912Z,215
2023-03-19T08:50:12.016Z,225
2023-03-19T08:51:11.605Z,235
2023-03-19T08:52:11.603Z,240
2023-03-19T08:53:11.677Z,245
2023-03-19T08:54:11.335Z,245
2023-03-19T08:55:11.583Z,250
2023-03-19T08:56:11.844Z,250
2023-03-19T08:57:11.853Z,250
2023-03-19T08:58:11.312Z,255
2023-03-19T08:59:11.044Z,250
2023-03-19T09:00:11.582Z,250
2023-03-19T09:01:11.533Z,250
2023-03-19T09:02:12.279Z,255
2023-03-19T09:03:10.982Z,255
2023-03-19T09:04:11.877Z,255
2023-03-19T09:05:11.481Z,250
2023-03-19T09:06:11.486Z,250
2023-03-19T09:07:11.558Z,250
2023-03-19T09:08:11.732Z,255
2023-03-19T09:09:11.688Z,250
2023-03-19T09:10:11.695Z,250
2023-03-19T09:11:11.779Z,265
2023-03-19T09:12:11.164Z,265
2023-03-19T09:13:11.407Z,260
2023-03-19T09:14:10.888Z,255
2023-03-19T09:15:11.688Z,255
2023-03-19T09:16:12.083Z,255
2023-03-19T09:17:10.848Z,260
2023-03-19T09:18:11.791Z,260
2023-03-19T09:19:11.373Z,265
2023-03-19T09:20:10.827Z,260
2023-03-19T09:21:11.326Z,260
2023-03-19T09:22:11.601Z,260
2023-03-19T09:23:10.792Z,260
2023-03-19T09:24:11.330Z,260
2023-03-19T09:25:11.306Z,265
2023-03-19T09:26:11.558Z,265
2023-03-19T09:27:11.538Z,260
2023-03-19T09:28:11.525Z,255
2023-03-19T09:29:11.267Z,250
2023-03-19T09:30:11.531Z,240
2023-03-19T09:31:11.857Z,235
2023-03-19T09:32:11.260Z,235
2023-03-19T09:33:11.678Z,225
2023-03-19T09:34:11.624Z,220
2023-03-19T09:35:10.717Z,215
2023-03-19T09:36:11.029Z,215
2023-03-19T09:37:11.445Z,215
2023-03-19T09:38:10.931Z,225
2023-03-19T09:39:10.936Z,230
2023-03-19T09:40:11.440Z,230
2023-03-19T09:41:11.197Z,235
2023-03-19T09:42:11.411Z,235
2023-03-19T09:43:11.250Z,240
2023-03-19T09:44:11.422Z,235
2023-03-19T09:45:11.132Z,230
2023-03-19T09:46:10.938Z,230
2023-03-19T09:47:11.174Z,225
2023-03-19T09:48:11.447Z,225
2023-03-19T09:49:11.386Z,220
2023-03-19T09:50:11.483Z,220
2023-03-19T09:51:11.106Z,220
2023-03-19T09:52:14.032Z,220
2023-03-19T09:53:11.059Z,220
2023-03-19T09:54:11.068Z,220
2023-03-19T09:55:11.056Z,220
2023-03-19T09:56:10.819Z,220
2023-03-19T09:57:13.180Z,215
2023-03-19T09:58:11.036Z,215
2023-03-19T09:59:10.760Z,215
2023-03-19T10:00:11.030Z,210
2023-03-19T10:01:11.037Z,210
2023-03-19T10:02:11.420Z,205
2023-03-19T10:03:13.212Z,205
2023-03-19T10:04:11.220Z,205
2023-03-19T10:05:11.062Z,205
2023-03-19T10:06:11.394Z,210
2023-03-19T10:07:10.947Z,210
2023-03-19T10:08:13.559Z,210
2023-03-19T10:09:11.207Z,210
2023-03-19T10:10:10.941Z,210
2023-03-19T10:11:11.182Z,210
2023-03-19T10:12:10.966Z,210
2023-03-19T10:13:10.953Z,215
2023-03-19T10:14:11.335Z,215
2023-03-19T10:15:10.936Z,215
2023-03-19T10:16:11.244Z,215
2023-03-19T10:17:10.634Z,210
2023-03-19T10:18:11.135Z,215
2023-03-19T10:19:10.629Z,215
2023-03-19T10:20:11.113Z,215
2023-03-19T10:21:11.139Z,215
2023-03-19T10:22:11.226Z,215
2023-03-19T10:23:10.827Z,220
2023-03-19T10:24:10.369Z,220
2023-03-19T10:25:10.588Z,220
2023-03-19T10:26:10.569Z,220
2023-03-19T10:27:11.063Z,220
2023-03-19T10:28:10.321Z,220
2023-03-19T10:29:10.776Z,215
2023-03-19T10:30:10.517Z,215
2023-03-19T10:31:12.434Z,215
2023-03-19T10:32:10.933Z,215
2023-03-19T10:33:10.857Z,215
2023-03-19T10:34:11.090Z,210
2023-03-19T10:35:10.767Z,210
2023-03-19T10:36:10.804Z,210
2023-03-19T10:37:10.997Z,210
2023-03-19T10:38:11.128Z,210
2023-03-19T10:39:10.708Z,210
2023-03-19T10:40:10.497Z,210
2023-03-19T10:41:10.731Z,205
2023-03-19T10:42:10.687Z,210
2023-03-19T10:43:10.684Z,210
2023-03-19T10:44:10.679Z,215
2023-03-19T10:45:10.678Z,225
2023-03-19T10:46:10.744Z,230
2023-03-19T10:47:10.635Z,245
2023-03-19T10:48:10.642Z,255
2023-03-19T10:49:10.647Z,265
2023-03-19T10:50:10.875Z,275
2023-03-19T10:51:10.364Z,280
2023-03-19T10:52:10.859Z,285
2023-03-19T10:53:10.847Z,295
2023-03-19T10:54:11.009Z,305
2023-03-19T10:55:10.869Z,310
2023-03-19T10:56:10.614Z,315
2023-03-19T10:57:10.649Z,315
2023-03-19T10:58:10.586Z,315
2023-03-19T10:59:10.815Z,310
2023-03-19T11:00:11.336Z,305
2023-03-19T11:01:10.949Z,295
2023-03-19T11:02:10.535Z,295
2023-03-19T11:03:10.258Z,295
2023-03-19T11:04:10.909Z,295
2023-03-19T11:05:10.753Z,295
2023-03-19T11:06:10.234Z,295
2023-03-19T11:07:10.506Z,300
2023-03-19T11:08:10.766Z,305
2023-03-19T11:09:10.510Z,315
2023-03-19T11:10:10.883Z,320
2023-03-19T11:11:10.499Z,325
2023-03-19T11:12:10.245Z,325
2023-03-19T11:13:10.512Z,325
2023-03-19T11:14:10.704Z,320
2023-03-19T11:15:10.202Z,315
2023-03-19T11:16:10.858Z,310
2023-03-19T11:17:13.824Z,310
2023-03-19T11:18:10.153Z,305
2023-03-19T11:19:10.136Z,305
2023-03-19T11:20:10.133Z,300
2023-03-19T11:21:10.425Z,295
2023-03-19T11:22:10.099Z,290
2023-03-19T11:23:10.110Z,280
2023-03-19T11:24:10.682Z,270
2023-03-19T11:25:10.154Z,270
2023-03-19T11:26:10.742Z,275
2023-03-19T11:27:10.454Z,280
2023-03-19T11:28:10.612Z,285
2023-03-19T11:29:10.337Z,290
2023-03-19T11:30:10.061Z,295
2023-03-19T11:31:10.441Z,300
2023-03-19T11:32:29.266Z,300
2023-03-19T11:33:10.670Z,305
2023-03-19T11:34:10.335Z,300
2023-03-19T11:35:10.080Z,290
2023-03-19T11:36:10.534Z,295
2023-03-19T11:37:10.287Z,305
2023-03-19T11:38:10.027Z,320
2023-03-19T11:39:10.240Z,330
2023-03-19T11:40:10.524Z,335
2023-03-19T11:41:10.466Z,340
2023-03-19T11:42:10.671Z,340
2023-03-19T11:43:10.276Z,345
2023-03-19T11:44:09.946Z,355
2023-03-19T11:45:10.201Z,350
2023-03-19T11:46:10.746Z,345
2023-03-19T11:47:28.908Z,335
2023-03-19T11:48:09.394Z,335
2023-03-19T11:49:10.393Z,340
2023-03-19T11:50:09.949Z,330
2023-03-19T11:51:10.153Z,325
2023-03-19T11:52:10.238Z,310
2023-03-19T11:53:10.207Z,300
2023-03-19T11:54:09.613Z,290
2023-03-19T11:55:10.136Z,280
2023-03-19T11:56:10.109Z,280
2023-03-19T11:57:09.883Z,275
2023-03-19T11:58:10.478Z,275
2023-03-19T11:59:10.087Z,270
2023-03-19T12:00:10.069Z,260
2023-03-19T12:01:09.557Z,250
2023-03-19T12:02:09.975Z,240
2023-03-19T12:03:09.879Z,230
2023-03-19T12:04:10.311Z,215
2023-03-19T12:05:09.673Z,190
2023-03-19T12:06:12.488Z,165
2023-03-19T12:07:10.183Z,150
2023-03-19T12:08:09.790Z,145
2023-03-19T12:09:10.148Z,145
2023-03-19T12:10:09.892Z,150
2023-03-19T12:11:10.095Z,165
2023-03-19T12:12:10.397Z,165
2023-03-19T12:13:10.101Z,175
2023-03-19T12:14:10.485Z,180
2023-03-19T12:15:09.820Z,180
2023-03-19T12:16:10.437Z,170
2023-03-19T12:17:10.321Z,170
2023-03-19T12:18:10.298Z,175
2023-03-19T12:19:10.300Z,175
2023-03-19T12:20:09.791Z,170
2023-03-19T12:21:09.826Z,160
2023-03-19T12:22:10.354Z,160
2023-03-19T12:23:10.029Z,160
2023-03-19T12:24:10.066Z,160
2023-03-19T12:25:10.244Z,160
2023-03-19T12:26:09.798Z,165
2023-03-19T12:27:09.703Z,165
2023-03-19T12:28:09.945Z,165
2023-03-19T12:29:11.333Z,155
2023-03-19T12:30:10.368Z,140
2023-03-19T12:31:10.497Z,125
2023-03-19T12:32:10.023Z,110
2023-03-19T12:33:10.292Z,100
2023-03-19T12:34:09.922Z,90
2023-03-19T12:35:09.880Z,85
2023-03-19T12:36:10.101Z,80
2023-03-19T12:37:09.886Z,75
2023-03-19T12:38:09.907Z,80
2023-03-19T12:39:09.597Z,85
2023-03-19T12:40:09.872Z,95
2023-03-19T12:41:09.848Z,105
2023-03-19T12:42:09.794Z,110
2023-03-19T12:43:09.840Z,115
2023-03-19T12:44:09.815Z,120
2023-03-19T12:45:10.062Z,125
2023-03-19T12:46:10.568Z,125
2023-03-19T12:47:10.292Z,135
2023-03-19T12:48:09.887Z,140
2023-03-19T12:49:09.501Z,155
2023-03-19T12:50:09.974Z,160
2023-03-19T12:51:09.722Z,165
2023-03-19T12:52:09.727Z,160
2023-03-19T12:53:09.441Z,155
2023-03-19T12:54:09.698Z,160
2023-03-19T12:55:09.155Z,165
2023-03-19T12:56:09.932Z,175
2023-03-19T12:57:09.654Z,170
2023-03-19T12:58:09.889Z,160
2023-03-19T12:59:09.826Z,155
2023-03-19T13:00:09.687Z,160
2023-03-19T13:01:09.630Z,165
2023-03-19T13:02:10.867Z,170
2023-03-19T13:03:09.855Z,170
2023-03-19T13:04:09.325Z,175
2023-03-19T13:05:09.430Z,170
2023-03-19T13:06:09.545Z,165
2023-03-19T13:07:09.299Z,155
2023-03-19T13:08:09.683Z,140
2023-03-19T13:09:09.297Z,130
2023-03-19T13:10:09.954Z,120
2023-03-19T13:11:10.018Z,120
2023-03-19T13:12:10.362Z,120
2023-03-19T13:13:10.228Z,120
2023-03-19T13:14:10.217Z,125
2023-03-19T13:15:09.959Z,135
2023-03-19T13:16:10.104Z,135
2023-03-19T13:17:10.171Z,135
2023-03-19T13:18:10.581Z,140
2023-03-19T13:19:09.925Z,150
2023-03-19T13:20:10.210Z,160
2023-03-19T13:21:09.910Z,165
2023-03-19T13:22:10.419Z,165
2023-03-19T13:23:09.903Z,155
2023-03-19T13:24:10.357Z,150
2023-03-19T13:25:10.129Z,140
2023-03-19T13:26:09.849Z,125
2023-03-19T13:27:09.342Z,120
2023-03-19T13:28:10.148Z,115
2023-03-19T13:29:10.156Z,105
2023-03-19T13:30:10.281Z,105
2023-03-19T13:31:10.668Z,105
2023-03-19T13:32:10.101Z,105
2023-03-19T13:33:10.691Z,105
2023-03-19T13:34:10.431Z,105
2023-03-19T13:35:09.980Z,100
2023-03-19T13:36:10.604Z,100
2023-03-19T13:37:09.949Z,95
2023-03-19T13:38:09.695Z,95
2023-03-19T13:39:10.268Z,95
2023-03-19T13:40:09.955Z,100
2023-03-19T13:41:09.689Z,110
2023-03-19T13:42:10.205Z,115
2023-03-19T13:43:29.760Z,125
2023-03-19T13:44:09.611Z,140
2023-03-19T13:45:12.809Z,160
2023-03-19T13:46:09.852Z,185
2023-03-19T13:47:10.058Z,215
2023-03-19T13:48:30.498Z,235
2023-03-19T13:49:10.086Z,235
2023-03-19T13:50:10.653Z,240
2023-03-19T13:51:09.815Z,240
2023-03-19T13:52:09.824Z,240
2023-03-19T13:53:09.771Z,240
2023-03-19T13:54:09.850Z,240
2023-03-19T13:55:09.768Z,240
2023-03-19T13:56:32.446Z,240
2023-03-19T13:57:09.502Z,240
2023-03-19T13:58:09.802Z,240
2023-03-19T13:59:09.690Z,240
2023-03-19T14:00:09.984Z,235
2023-03-19T14:01:10.075Z,235
2023-03-19T14:02:09.878Z,230
2023-03-19T14:03:09.681Z,225
2023-03-19T14:04:10.270Z,225
2023-03-19T14:05:09.675Z,220
2023-03-19T14:06:10.265Z,220
2023-03-19T14:07:09.361Z,215
2023-03-19T14:08:09.867Z,205
2023-03-19T14:09:09.370Z,200
2023-03-19T14:10:09.518Z,200
2023-03-19T14:11:09.856Z,200
2023-03-19T14:12:09.047Z,205
2023-03-19T14:13:09.720Z,205
2023-03-19T14:14:09.811Z,205
2023-03-19T14:15:09.404Z,205
2023-03-19T14:16:10.252Z,205
2023-03-19T14:17:10.155Z,205
2023-03-19T14:18:09.468Z,205
2023-03-19T14:19:11.187Z,205
2023-03-19T14:20:24.581Z,205
2023-03-19T14:21:22.012Z,205
2023-03-19T14:22:10.587Z,210
2023-03-19T14:23:11.884Z,205
2023-03-19T14:24:14.784Z,210
2023-03-19T14:25:10.696Z,210
2023-03-19T14:26:09.760Z,210
2023-03-19T14:27:09.712Z,210